createdAt,value
2022-07-25T00:01:47.054Z,11.73
2022-07-25T00:04:14.648Z,11.60
2022-07-25T00:06:42.318Z,11.67
2022-07-25T00:09:09.244Z,11.66
2022-07-25T00:11:36.258Z,11.64
2022-07-25T00:14:03.694Z,11.73
2022-07-25T00:16:30.936Z,11.67
2022-07-25T00:18:57.936Z,11.75
2022-07-25T00:21:24.826Z,11.76
2022-07-25T00:23:51.727Z,11.69
2022-07-25T00:26:18.909Z,11.64
2022-07-25T00:28:45.849Z,11.58
2022-07-25T00:31:12.803Z,11.64
2022-07-25T00:33:40.420Z,11.65
2022-07-25T00:36:10.350Z,11.65
2022-07-25T00:38:37.255Z,11.61
2022-07-25T00:41:04.467Z,11.55
2022-07-25T00:43:31.703Z,11.60
2022-07-25T00:45:59.362Z,11.61
2022-07-25T00:48:27.856Z,11.60
2022-07-25T00:50:55.979Z,11.57
2022-07-25T00:53:23.018Z,11.59
2022-07-25T00:55:49.878Z,11.57
2022-07-25T00:58:16.765Z,11.58
2022-07-25T01:00:43.643Z,11.56
2022-07-25T01:03:10.681Z,11.59
2022-07-25T01:05:37.691Z,11.57
2022-07-25T01:08:04.964Z,11.50
2022-07-25T01:10:32.462Z,11.48
2022-07-25T01:12:59.464Z,11.42
2022-07-25T01:15:26.396Z,11.44
2022-07-25T01:17:53.366Z,11.47
2022-07-25T01:20:24.131Z,11.51
2022-07-25T01:22:51.277Z,11.51
2022-07-25T01:25:19.575Z,11.53
2022-07-25T01:27:51.254Z,11.51
2022-07-25T01:30:21.704Z,11.34
2022-07-25T01:32:48.578Z,11.33
2022-07-25T01:35:15.556Z,11.38
2022-07-25T01:37:42.396Z,11.19
2022-07-25T01:40:13.251Z,11.39
2022-07-25T01:42:40.216Z,11.39
2022-07-25T01:45:07.858Z,11.42
2022-07-25T01:47:34.806Z,11.38
2022-07-25T01:50:01.752Z,11.40
2022-07-25T01:52:28.605Z,11.30
2022-07-25T01:54:55.536Z,11.25
2022-07-25T01:57:24.366Z,11.25
2022-07-25T01:59:57.520Z,11.38
2022-07-25T02:02:24.453Z,11.38
2022-07-25T02:04:51.563Z,11.36
2022-07-25T02:07:18.517Z,11.30
2022-07-25T02:09:45.413Z,11.29
2022-07-25T02:12:12.378Z,11.39
2022-07-25T02:14:39.523Z,11.40
2022-07-25T02:17:06.556Z,11.42
2022-07-25T02:19:33.557Z,11.35
2022-07-25T02:22:00.777Z,11.37
2022-07-25T02:24:27.716Z,11.35
2022-07-25T02:26:54.599Z,11.33
2022-07-25T02:29:22.051Z,11.39
2022-07-25T02:31:49.290Z,11.49
2022-07-25T02:34:16.245Z,11.31
2022-07-25T02:36:43.283Z,11.52
2022-07-25T02:39:10.259Z,11.45
2022-07-25T02:41:37.139Z,11.35
2022-07-25T02:44:05.539Z,11.32
2022-07-25T02:46:33.335Z,11.39
2022-07-25T02:49:00.378Z,11.35
2022-07-25T02:51:27.276Z,11.37
2022-07-25T02:53:57.634Z,11.31
2022-07-25T02:56:25.958Z,11.31
2022-07-25T02:58:56.539Z,11.43
2022-07-25T03:01:23.529Z,11.45
2022-07-25T03:03:50.586Z,11.50
2022-07-25T03:06:18.258Z,11.57
2022-07-25T03:08:45.278Z,11.58
2022-07-25T03:11:13.383Z,11.65
2022-07-25T03:13:40.287Z,11.71
2022-07-25T03:16:07.959Z,11.92
2022-07-25T03:18:34.855Z,12.07
2022-07-25T03:21:01.741Z,12.36
2022-07-25T03:23:30.031Z,12.54
2022-07-25T03:25:57.121Z,12.59
2022-07-25T03:28:24.963Z,12.90
2022-07-25T03:30:52.803Z,13.08
2022-07-25T03:33:19.722Z,13.29
2022-07-25T03:35:46.717Z,13.57
2022-07-25T03:38:13.617Z,13.82
2022-07-25T03:40:40.696Z,14.12
2022-07-25T03:43:07.576Z,14.39
2022-07-25T03:45:34.551Z,14.42
2022-07-25T03:48:01.576Z,14.99
2022-07-25T03:50:28.456Z,15.23
2022-07-25T03:52:55.367Z,15.64
2022-07-25T03:55:22.201Z,16.02
2022-07-25T03:57:49.022Z,16.16
2022-07-25T04:00:16.060Z,16.40
2022-07-25T04:02:43.025Z,16.78
2022-07-25T04:05:10.611Z,17.14
2022-07-25T04:07:38.252Z,17.49
2022-07-25T04:10:06.091Z,17.80
2022-07-25T04:12:33.020Z,18.19
2022-07-25T04:14:59.914Z,18.63
2022-07-25T04:17:26.778Z,18.99
2022-07-25T04:19:53.728Z,19.46
2022-07-25T04:22:20.839Z,19.82
2022-07-25T04:24:47.723Z,20.01
2022-07-25T04:27:14.626Z,20.50
2022-07-25T04:29:41.458Z,20.70
2022-07-25T04:32:08.421Z,20.69
2022-07-25T04:34:35.416Z,20.47
2022-07-25T04:37:02.346Z,20.17
2022-07-25T04:39:29.195Z,19.82
2022-07-25T04:41:56.039Z,19.63
2022-07-25T04:44:22.986Z,19.48
2022-07-25T04:46:49.856Z,19.37
2022-07-25T04:49:16.865Z,19.18
2022-07-25T04:51:43.876Z,18.88
2022-07-25T04:54:10.778Z,18.65
2022-07-25T04:56:37.778Z,18.58
2022-07-25T04:59:06.503Z,18.65
2022-07-25T05:01:34.883Z,18.64
2022-07-25T05:04:02.012Z,18.70
2022-07-25T05:06:28.926Z,18.78
2022-07-25T05:08:55.873Z,18.95
2022-07-25T05:11:22.846Z,19.08
2022-07-25T05:13:49.740Z,19.28
2022-07-25T05:16:16.711Z,19.57
2022-07-25T05:18:43.821Z,19.78
2022-07-25T05:21:14.200Z,19.95
2022-07-25T05:23:41.165Z,20.10
2022-07-25T05:26:08.107Z,20.66
2022-07-25T05:28:35.020Z,20.92
2022-07-25T05:31:02.043Z,21.52
2022-07-25T05:33:29.054Z,22.10
2022-07-25T05:35:56.113Z,22.34
2022-07-25T05:38:23.004Z,22.42
2022-07-25T05:40:52.435Z,22.78
2022-07-25T05:43:19.837Z,23.16
2022-07-25T05:45:49.739Z,23.62
2022-07-25T05:48:17.057Z,23.86
2022-07-25T05:50:44.001Z,24.08
2022-07-25T05:53:10.856Z,24.08
2022-07-25T05:55:40.721Z,23.94
2022-07-25T05:58:09.595Z,24.40
2022-07-25T06:00:36.914Z,24.80
2022-07-25T06:03:04.216Z,24.96
2022-07-25T06:05:31.622Z,24.90
2022-07-25T06:07:58.472Z,25.14
2022-07-25T06:10:25.343Z,25.35
2022-07-25T06:12:52.252Z,25.41
2022-07-25T06:15:22.434Z,25.67
2022-07-25T06:17:53.335Z,25.92
2022-07-25T06:20:20.323Z,26.09
2022-07-25T06:22:47.177Z,26.33
2022-07-25T06:25:14.143Z,26.39
2022-07-25T06:27:41.572Z,26.52
2022-07-25T06:30:19.171Z,26.87
2022-07-25T06:32:47.374Z,27.19
2022-07-25T06:35:14.253Z,27.39
2022-07-25T06:37:41.148Z,27.24
2022-07-25T06:40:10.876Z,27.45
2022-07-25T06:42:41.696Z,27.78
2022-07-25T06:45:12.022Z,27.72
2022-07-25T06:47:39.331Z,27.85
2022-07-25T06:50:07.427Z,28.57
2022-07-25T06:52:34.664Z,29.03
2022-07-25T06:55:02.008Z,28.87
2022-07-25T06:57:28.981Z,29.12
2022-07-25T06:59:55.902Z,29.35
2022-07-25T07:02:22.808Z,29.83
2022-07-25T07:04:49.697Z,30.00
2022-07-25T07:07:16.859Z,30.26
2022-07-25T07:09:44.260Z,30.63
2022-07-25T07:12:11.327Z,30.56
2022-07-25T07:14:38.306Z,30.89
2022-07-25T07:17:05.781Z,31.00
2022-07-25T07:19:32.628Z,31.22
2022-07-25T07:21:59.860Z,30.98
2022-07-25T07:24:26.753Z,30.63
2022-07-25T07:26:54.401Z,30.32
2022-07-25T07:29:21.477Z,30.28
2022-07-25T07:31:48.529Z,30.38
2022-07-25T07:34:16.571Z,30.75
2022-07-25T07:36:43.907Z,30.79
2022-07-25T07:39:10.876Z,30.89
2022-07-25T07:41:37.837Z,31.05
2022-07-25T07:44:05.998Z,31.42
2022-07-25T07:46:32.945Z,32.12
2022-07-25T07:48:59.992Z,32.08
2022-07-25T07:51:26.928Z,31.65
2022-07-25T07:54:12.342Z,31.46
2022-07-25T07:56:39.500Z,31.24
2022-07-25T07:59:06.745Z,31.06
2022-07-25T08:01:34.676Z,31.32
2022-07-25T08:04:01.574Z,31.72
2022-07-25T08:06:29.094Z,31.99
2022-07-25T08:08:56.002Z,32.52
2022-07-25T08:11:22.930Z,32.86
2022-07-25T08:13:49.934Z,33.11
2022-07-25T08:16:16.830Z,33.36
2022-07-25T08:18:43.779Z,33.21
2022-07-25T08:21:10.914Z,33.59
2022-07-25T08:23:40.538Z,33.63
2022-07-25T08:26:07.730Z,33.96
2022-07-25T08:28:34.673Z,34.12
2022-07-25T08:31:01.763Z,34.07
2022-07-25T08:33:28.755Z,34.35
2022-07-25T08:35:56.050Z,34.39
2022-07-25T08:38:24.122Z,34.43
2022-07-25T08:40:51.196Z,34.18
2022-07-25T08:43:18.686Z,34.55
2022-07-25T08:45:50.053Z,34.91
2022-07-25T08:48:18.143Z,35.11
2022-07-25T08:50:45.294Z,35.04
2022-07-25T08:55:59.976Z,34.87
2022-07-25T08:58:26.857Z,34.84
2022-07-25T09:00:53.759Z,35.12
2022-07-25T09:03:20.671Z,35.11
2022-07-25T09:05:47.895Z,34.66
2022-07-25T09:08:17.404Z,34.99
2022-07-25T09:10:49.425Z,35.12
2022-07-25T09:13:16.594Z,35.36
2022-07-25T09:15:50.955Z,35.53
2022-07-25T09:18:19.189Z,35.87
2022-07-25T09:20:50.466Z,35.89
2022-07-25T09:23:36.881Z,34.90
2022-07-25T09:26:10.564Z,35.71
2022-07-25T09:28:51.380Z,35.79
2022-07-25T09:31:19.278Z,35.54
2022-07-25T09:33:51.734Z,36.02
2022-07-25T09:36:18.713Z,36.41
2022-07-25T09:38:55.515Z,36.71
2022-07-25T09:41:22.657Z,36.51
2022-07-25T09:43:49.535Z,36.46
2022-07-25T09:46:17.270Z,36.48
2022-07-25T09:48:45.133Z,36.88
2022-07-25T09:51:12.165Z,36.64
2022-07-25T09:53:39.031Z,36.81
2022-07-25T09:56:07.672Z,36.79
2022-07-25T09:58:34.481Z,37.05
2022-07-25T10:01:03.491Z,36.95
2022-07-25T10:03:51.285Z,36.74
2022-07-25T10:06:55.216Z,36.83
2022-07-25T10:09:22.218Z,35.94
2022-07-25T10:12:08.626Z,36.03
2022-07-25T10:14:36.558Z,34.46
2022-07-25T10:17:03.731Z,35.51
2022-07-25T10:19:54.153Z,36.37
2022-07-25T10:22:46.587Z,36.87
2022-07-25T10:25:19.774Z,36.88
2022-07-25T10:27:51.024Z,37.33
2022-07-25T10:30:23.459Z,37.39
2022-07-25T10:32:55.655Z,37.09
2022-07-25T10:35:22.477Z,36.92
2022-07-25T10:37:51.077Z,37.29
2022-07-25T10:40:44.079Z,37.14
2022-07-25T10:43:15.504Z,37.47
2022-07-25T10:46:02.532Z,37.77
2022-07-25T10:48:30.959Z,37.71
2022-07-25T10:51:00.215Z,37.16
2022-07-25T10:53:38.594Z,36.70
2022-07-25T10:56:09.998Z,36.67
2022-07-25T10:59:01.784Z,36.78
2022-07-25T11:01:30.459Z,37.40
2022-07-25T11:03:59.281Z,37.68
2022-07-25T11:06:44.237Z,38.25
2022-07-25T11:09:18.605Z,37.95
2022-07-25T11:11:50.527Z,37.78
2022-07-25T11:14:21.261Z,37.76
2022-07-25T11:16:50.782Z,37.29
2022-07-25T11:19:28.524Z,37.58
2022-07-25T11:21:58.632Z,38.02
2022-07-25T11:24:35.493Z,38.47
2022-07-25T11:27:02.434Z,38.68
2022-07-25T11:29:29.337Z,38.76
2022-07-25T11:32:00.381Z,37.97
2022-07-25T11:34:32.122Z,37.80
2022-07-25T11:37:01.901Z,37.46
2022-07-25T11:39:30.421Z,37.30
2022-07-25T11:42:01.061Z,36.28
2022-07-25T11:44:39.657Z,36.62
2022-07-25T11:47:09.320Z,36.73
2022-07-25T11:49:49.816Z,37.07
2022-07-25T11:52:24.111Z,35.99
2022-07-25T11:54:55.002Z,36.63
2022-07-25T11:57:27.117Z,37.05
2022-07-25T11:59:54.560Z,37.01
2022-07-25T12:02:26.112Z,37.56
2022-07-25T12:05:01.217Z,37.91
2022-07-25T12:07:44.743Z,38.44
2022-07-25T12:10:16.946Z,38.78
2022-07-25T12:12:51.096Z,37.56
2022-07-25T12:15:20.325Z,37.43
2022-07-25T12:17:47.381Z,37.24
2022-07-25T12:20:18.685Z,36.69
2022-07-25T12:22:45.726Z,37.20
2022-07-25T12:25:12.869Z,37.70
2022-07-25T12:27:40.139Z,38.34
2022-07-25T12:30:07.742Z,37.28
2022-07-25T12:32:34.716Z,35.47
2022-07-25T12:35:01.661Z,35.79
2022-07-25T12:37:28.601Z,36.66
2022-07-25T12:39:56.330Z,37.00
2022-07-25T12:42:23.532Z,37.58
2022-07-25T12:44:50.355Z,38.05
2022-07-25T12:47:17.266Z,38.73
2022-07-25T12:49:44.166Z,38.28
2022-07-25T12:52:11.354Z,35.92
2022-07-25T12:54:38.257Z,35.42
2022-07-25T12:57:05.278Z,35.62
2022-07-25T12:59:32.182Z,34.53
2022-07-25T13:01:59.238Z,33.20
2022-07-25T13:04:26.537Z,33.17
2022-07-25T13:06:54.839Z,33.41
2022-07-25T13:09:21.901Z,34.18
2022-07-25T13:11:49.237Z,34.37
2022-07-25T13:14:18.996Z,34.44
2022-07-25T13:16:46.560Z,34.22
2022-07-25T13:19:13.781Z,34.63
2022-07-25T13:21:40.737Z,35.53
2022-07-25T13:24:07.852Z,35.75
2022-07-25T13:26:34.840Z,35.82
2022-07-25T13:29:01.796Z,34.21
2022-07-25T13:31:28.749Z,34.57
2022-07-25T13:33:56.172Z,35.24
2022-07-25T13:36:23.071Z,35.23
2022-07-25T13:38:49.961Z,34.79
2022-07-25T13:41:16.888Z,34.44
2022-07-25T13:43:44.457Z,34.64
2022-07-25T13:46:11.564Z,35.42
2022-07-25T13:48:38.520Z,35.19
2022-07-25T13:51:05.495Z,33.98
2022-07-25T13:53:32.479Z,34.23
2022-07-25T13:55:59.604Z,33.04
2022-07-25T13:58:27.034Z,31.39
2022-07-25T14:00:54.121Z,30.48
2022-07-25T14:03:21.178Z,31.11
2022-07-25T14:05:48.289Z,32.48
2022-07-25T14:08:15.357Z,33.22
2022-07-25T14:10:42.224Z,34.46
2022-07-25T14:13:09.258Z,35.02
2022-07-25T14:15:36.199Z,34.35
2022-07-25T14:18:03.068Z,34.19
2022-07-25T14:20:29.927Z,33.97
2022-07-25T14:22:56.845Z,33.07
2022-07-25T14:25:23.696Z,31.75
2022-07-25T14:27:50.615Z,31.00
2022-07-25T14:30:17.577Z,30.63
2022-07-25T14:32:44.440Z,30.49
2022-07-25T14:35:11.734Z,30.86
2022-07-25T14:37:38.825Z,31.16
2022-07-25T14:40:06.759Z,31.69
2022-07-25T14:42:33.884Z,32.56
2022-07-25T14:45:00.718Z,33.27
2022-07-25T14:47:27.775Z,32.21
2022-07-25T14:49:54.722Z,31.91
2022-07-25T14:52:22.761Z,31.59
2022-07-25T14:54:49.999Z,31.04
2022-07-25T14:57:16.925Z,30.75
2022-07-25T14:59:43.779Z,30.95
2022-07-25T15:02:11.525Z,32.53
2022-07-25T15:04:38.543Z,33.48
2022-07-25T15:07:06.274Z,33.92
2022-07-25T15:09:33.137Z,33.04
2022-07-25T15:12:00.042Z,33.78
2022-07-25T15:14:26.922Z,33.68
2022-07-25T15:16:53.872Z,32.23
2022-07-25T15:19:20.802Z,31.16
2022-07-25T15:21:47.797Z,30.80
2022-07-25T15:24:14.734Z,30.97
2022-07-25T15:26:41.556Z,30.76
2022-07-25T15:29:10.299Z,29.85
2022-07-25T15:31:37.971Z,28.99
2022-07-25T15:34:04.978Z,29.36
2022-07-25T15:36:31.888Z,29.60
2022-07-25T15:38:58.761Z,29.63
2022-07-25T15:41:26.768Z,29.53
2022-07-25T15:43:53.840Z,29.10
2022-07-25T15:46:20.773Z,28.86
2022-07-25T15:48:47.814Z,28.60
2022-07-25T15:51:16.708Z,28.52
2022-07-25T15:53:43.797Z,28.48
2022-07-25T15:56:11.015Z,28.72
2022-07-25T15:58:37.994Z,28.63
2022-07-25T16:01:05.123Z,28.49
2022-07-25T16:03:32.096Z,28.19
2022-07-25T16:05:59.080Z,28.27
2022-07-25T16:08:25.988Z,27.79
2022-07-25T16:10:53.029Z,27.78
2022-07-25T16:13:19.939Z,27.82
2022-07-25T16:15:46.923Z,28.09
2022-07-25T16:18:13.958Z,28.28
2022-07-25T16:20:40.837Z,28.26
2022-07-25T16:23:07.753Z,28.36
2022-07-25T16:25:34.907Z,28.31
2022-07-25T16:28:02.041Z,27.99
2022-07-25T16:30:28.899Z,28.14
2022-07-25T16:32:57.041Z,27.77
2022-07-25T16:35:24.033Z,27.44
2022-07-25T16:37:51.281Z,27.28
2022-07-25T16:40:18.222Z,27.17
2022-07-25T16:42:45.577Z,27.03
2022-07-25T16:45:12.481Z,26.94
2022-07-25T16:47:41.052Z,26.80
2022-07-25T16:50:08.322Z,26.67
2022-07-25T16:52:35.202Z,26.72
2022-07-25T16:55:02.118Z,26.49
2022-07-25T16:57:29.216Z,26.30
2022-07-25T16:59:56.162Z,26.13
2022-07-25T17:02:28.928Z,25.94
2022-07-25T17:04:56.604Z,25.84
2022-07-25T17:07:23.718Z,25.84
2022-07-25T17:09:50.673Z,25.80
2022-07-25T17:12:17.765Z,25.83
2022-07-25T17:14:45.101Z,25.86
2022-07-25T17:17:12.075Z,25.84
2022-07-25T17:19:41.544Z,25.78
2022-07-25T17:22:09.134Z,25.73
2022-07-25T17:24:36.361Z,25.61
2022-07-25T17:27:03.370Z,25.56
2022-07-25T17:29:30.376Z,25.42
2022-07-25T17:31:57.462Z,25.44
2022-07-25T17:34:26.748Z,25.51
2022-07-25T17:36:54.205Z,25.58
2022-07-25T17:39:21.171Z,25.56
2022-07-25T17:41:48.037Z,25.69
2022-07-25T17:44:15.317Z,25.67
2022-07-25T17:46:42.650Z,25.73
2022-07-25T17:49:09.675Z,25.76
2022-07-25T17:51:36.729Z,25.66
2022-07-25T17:54:03.864Z,25.59
2022-07-25T17:56:30.945Z,25.48
2022-07-25T17:58:57.815Z,25.34
2022-07-25T18:01:24.678Z,25.22
2022-07-25T18:03:51.653Z,25.17
2022-07-25T18:06:18.588Z,25.07
2022-07-25T18:08:45.435Z,24.85
2022-07-25T18:11:12.435Z,24.67
2022-07-25T18:13:39.318Z,24.45
2022-07-25T18:16:06.636Z,24.33
2022-07-25T18:18:33.535Z,24.08
2022-07-25T18:21:00.482Z,23.95
2022-07-25T18:23:28.817Z,23.68
2022-07-25T18:25:55.770Z,23.54
2022-07-25T18:28:22.733Z,23.36
2022-07-25T18:30:52.283Z,23.16
2022-07-25T18:33:20.353Z,23.02
2022-07-25T18:35:47.382Z,22.84
2022-07-25T18:38:14.282Z,22.49
2022-07-25T18:40:41.159Z,21.99
2022-07-25T18:43:08.966Z,21.81
2022-07-25T18:45:37.480Z,21.52
2022-07-25T18:48:07.318Z,21.28
2022-07-25T18:50:34.279Z,21.02
2022-07-25T18:53:01.169Z,20.73
2022-07-25T18:55:28.128Z,20.61
2022-07-25T18:57:55.093Z,20.40
2022-07-25T19:00:22.146Z,20.22
2022-07-25T19:02:49.077Z,20.02
2022-07-25T19:05:16.068Z,19.97
2022-07-25T19:07:43.058Z,19.87
2022-07-25T19:10:10.344Z,19.69
2022-07-25T19:12:37.347Z,19.46
2022-07-25T19:15:05.386Z,19.37
2022-07-25T19:17:37.764Z,19.10
2022-07-25T19:20:05.336Z,19.02
2022-07-25T19:22:32.228Z,18.98
2022-07-25T19:25:01.540Z,18.84
2022-07-25T19:27:28.996Z,18.70
2022-07-25T19:29:55.855Z,18.67
2022-07-25T19:32:22.812Z,18.57
2022-07-25T19:34:49.764Z,18.48
2022-07-25T19:37:16.991Z,18.43
2022-07-25T19:39:43.936Z,18.31
2022-07-25T19:42:12.352Z,18.20
2022-07-25T19:44:39.402Z,18.10
2022-07-25T19:47:09.862Z,18.05
2022-07-25T19:49:40.315Z,17.99
2022-07-25T19:52:08.407Z,17.85
2022-07-25T19:54:35.588Z,17.87
2022-07-25T19:57:02.434Z,17.80
2022-07-25T19:59:29.334Z,17.68
2022-07-25T20:01:56.381Z,17.65
2022-07-25T20:04:23.297Z,17.58
2022-07-25T20:06:50.831Z,17.50
2022-07-25T20:09:17.733Z,17.49
2022-07-25T20:11:44.780Z,17.41
2022-07-25T20:14:11.736Z,17.42
2022-07-25T20:16:38.961Z,17.31
2022-07-25T20:19:06.897Z,17.21
2022-07-25T20:21:36.216Z,17.23
2022-07-25T20:24:03.168Z,17.20
2022-07-25T20:26:30.089Z,17.13
2022-07-25T20:28:57.186Z,17.13
2022-07-25T20:31:27.364Z,17.10
2022-07-25T20:33:54.362Z,17.05
2022-07-25T20:36:21.404Z,16.99
2022-07-25T20:38:48.482Z,16.92
2022-07-25T20:41:15.541Z,16.91
2022-07-25T20:43:42.485Z,16.88
2022-07-25T20:46:09.704Z,16.88
2022-07-25T20:48:37.068Z,16.85
2022-07-25T20:51:04.213Z,16.78
2022-07-25T20:53:31.120Z,16.85
2022-07-25T20:55:58.571Z,16.77
2022-07-25T20:58:25.578Z,16.74
2022-07-25T21:00:52.703Z,16.72
2022-07-25T21:03:19.640Z,16.70
2022-07-25T21:05:46.596Z,16.65
2022-07-25T21:08:13.624Z,16.68
2022-07-25T21:10:40.481Z,16.66
2022-07-25T21:13:07.391Z,16.68
2022-07-25T21:15:34.763Z,16.62
2022-07-25T21:18:01.673Z,16.65
2022-07-25T21:20:28.821Z,16.65
2022-07-25T21:22:55.734Z,16.63
2022-07-25T21:25:22.726Z,16.63
2022-07-25T21:27:49.679Z,16.53
2022-07-25T21:30:16.601Z,16.60
2022-07-25T21:32:44.496Z,16.58
2022-07-25T21:35:11.496Z,16.54
2022-07-25T21:37:38.534Z,16.56
2022-07-25T21:40:06.263Z,16.43
2022-07-25T21:42:33.143Z,16.45
2022-07-25T21:44:59.998Z,16.48
2022-07-25T21:47:26.881Z,16.40
2022-07-25T21:50:13.053Z,16.31
2022-07-25T21:52:40.160Z,16.30
2022-07-25T21:55:08.000Z,16.26
2022-07-25T21:57:35.068Z,16.27
2022-07-25T22:00:02.016Z,16.13
2022-07-25T22:05:13.586Z,16.06
2022-07-25T22:07:40.946Z,16.14
2022-07-25T22:10:08.542Z,16.13
2022-07-25T22:12:35.554Z,16.07
2022-07-25T22:15:02.555Z,16.14
2022-07-25T22:17:49.052Z,16.19
2022-07-25T22:20:16.281Z,16.15
2022-07-25T22:22:43.168Z,16.10
2022-07-25T22:25:10.143Z,16.13
2022-07-25T22:27:37.080Z,16.14
2022-07-25T22:30:04.604Z,16.15
2022-07-25T22:32:31.511Z,16.16
2022-07-25T22:34:58.672Z,16.16
2022-07-25T22:37:25.689Z,16.19
2022-07-25T22:39:56.513Z,16.17
2022-07-25T22:42:25.992Z,16.13
2022-07-25T22:44:52.977Z,16.21
2022-07-25T22:47:20.638Z,16.27
2022-07-25T22:49:47.625Z,16.28
2022-07-25T22:52:14.504Z,16.35
2022-07-25T22:54:41.407Z,16.39
2022-07-25T22:57:08.343Z,16.21
2022-07-25T22:59:35.326Z,16.44
2022-07-25T23:02:03.583Z,16.34
2022-07-25T23:04:30.527Z,16.50
2022-07-25T23:06:57.511Z,16.54
2022-07-25T23:09:24.403Z,16.54
2022-07-25T23:12:00.745Z,16.57
2022-07-25T23:14:27.705Z,16.65
2022-07-25T23:17:13.084Z,16.64
2022-07-25T23:19:39.981Z,16.62
2022-07-25T23:22:06.887Z,16.71
2022-07-25T23:24:37.630Z,16.65
2022-07-25T23:27:05.127Z,16.80
2022-07-25T23:29:32.046Z,16.81
2022-07-25T23:31:59.014Z,16.81
2022-07-25T23:34:26.043Z,16.81
2022-07-25T23:36:53.085Z,16.88
2022-07-25T23:39:19.959Z,16.74
2022-07-25T23:41:46.794Z,16.84
2022-07-25T23:47:00.016Z,16.89
2022-07-25T23:49:28.564Z,16.89
2022-07-25T23:51:57.246Z,16.92
2022-07-25T23:54:24.890Z,16.85
2022-07-25T23:56:52.206Z,16.92
2022-07-25T23:59:19.343Z,16.86
